Time,TemperatureF,DewpointF,PressureIn,WindDirection,WindDirectionDegrees,WindSpeedMPH,WindSpeedGustMPH,Humidity,HourlyPrecipIn,Conditions,Clouds,dailyrainin,SoftwareType,DateUTC
2013-02-24 00:00:00,21.0,19.0,29.97,SE,131,1.0,2.0,92,0.00,,,0.00,Wunderground v.1.15,2013-02-24 06:00:00,
2013-02-24 00:10:00,21.0,19.0,29.97,SE,124,1.0,1.0,92,0.00,,,0.00,Wunderground v.1.15,2013-02-24 06:10:00,
2013-02-24 00:20:00,21.1,19.1,29.97,SE,134,1.0,1.0,92,0.00,,,0.00,Wunderground v.1.15,2013-02-24 06:20:00,
2013-02-24 00:30:00,19.5,17.3,29.97,SE,134,1.0,1.0,91,0.00,,,0.00,Wunderground v.1.15,2013-02-24 06:30:00,
2013-02-24 00:40:00,19.1,17.2,29.97,SE,134,1.0,1.0,92,0.00,,,0.00,Wunderground v.1.15,2013-02-24 06:40:00,
2013-02-24 00:50:00,19.4,17.7,29.97,SE,134,0.0,0.0,93,0.00,,,0.00,Wunderground v.1.15,2013-02-24 06:50:00,
2013-02-24 01:00:00,19.8,18.1,29.97,SE,134,1.0,1.0,93,0.00,,,0.00,Wunderground v.1.15,2013-02-24 07:00:00,
2013-02-24 01:10:00,19.9,18.2,29.98,SE,134,1.0,1.0,93,0.00,,,0.00,Wunderground v.1.15,2013-02-24 07:10:00,
2013-02-24 01:15:00,19.5,17.6,29.98,SE,133,1.0,1.0,92,0.00,,,0.00,Wunderground v.1.15,2013-02-24 07:15:00,
2013-02-24 01:25:00,19.2,17.3,29.98,SE,134,0.0,0.0,92,0.00,,,0.00,Wunderground v.1.15,2013-02-24 07:25:00,
2013-02-24 01:30:00,19.2,17.3,29.98,SE,132,0.0,0.0,92,0.00,,,0.00,Wunderground v.1.15,2013-02-24 07:30:00,
2013-02-24 01:40:00,19.0,17.3,29.99,SE,145,0.0,3.0,93,0.00,,,0.00,Wunderground v.1.15,2013-02-24 07:40:00,
2013-02-24 01:50:00,20.8,19.3,29.98,SE,134,3.0,3.0,94,0.00,,,0.00,Wunderground v.1.15,2013-02-24 07:50:00,
2013-02-24 02:00:00,20.5,18.8,29.98,SE,146,2.0,3.0,93,0.00,,,0.00,Wunderground v.1.15,2013-02-24 08:00:00,
2013-02-24 02:10:00,19.6,17.4,29.99,South,170,1.0,1.0,91,0.00,,,0.00,Wunderground v.1.15,2013-02-24 08:10:00,
2013-02-24 02:15:00,19.2,17.3,29.99,South,186,1.0,1.0,92,0.00,,,0.00,Wunderground v.1.15,2013-02-24 08:15:00,
2013-02-24 02:25:00,18.5,16.6,29.99,South,186,0.0,1.0,92,0.00,,,0.00,Wunderground v.1.15,2013-02-24 08:25:00,
2013-02-24 02:35:00,19.2,17.5,29.99,SSE,155,1.0,2.0,93,0.00,,,0.00,Wunderground v.1.15,2013-02-24 08:35:00,
2013-02-24 02:45:00,19.3,17.6,29.99,SSE,155,1.0,2.0,93,0.00,,,0.00,Wunderground v.1.15,2013-02-24 08:45:00,
2013-02-24 02:55:00,18.8,16.9,29.99,SSE,153,0.0,1.0,92,0.00,,,0.00,Wunderground v.1.15,2013-02-24 08:55:00,
2013-02-24 03:00:00,18.3,16.4,29.99,SSE,154,0.0,0.0,92,0.00,,,0.00,Wunderground v.1.15,2013-02-24 09:00:00,
2013-02-24 03:10:00,17.5,15.6,29.99,SSE,155,1.0,1.0,92,0.00,,,0.00,Wunderground v.1.15,2013-02-24 09:10:00,
2013-02-24 03:15:00,17.2,15.3,29.99,SSE,155,1.0,1.0,92,0.00,,,0.00,Wunderground v.1.15,2013-02-24 09:15:00,
2013-02-24 03:20:00,17.4,15.7,29.99,SSE,160,1.0,1.0,93,0.00,,,0.00,Wunderground v.1.15,2013-02-24 09:20:00,
2013-02-24 03:30:00,17.3,15.6,29.99,SSE,166,1.0,1.0,93,0.00,,,0.00,Wunderground v.1.15,2013-02-24 09:30:00,
2013-02-24 03:35:00,17.4,15.7,29.99,South,172,1.0,2.0,93,0.00,,,0.00,Wunderground v.1.15,2013-02-24 09:35:00,
2013-02-24 03:45:00,17.5,15.8,29.98,SSW,197,2.0,2.0,93,0.00,,,0.00,Wunderground v.1.15,2013-02-24 09:45:00,
2013-02-24 03:55:00,18.0,16.3,29.99,South,180,3.0,3.0,93,0.00,,,0.00,Wunderground v.1.15,2013-02-24 09:55:00,
2013-02-24 04:00:00,18.2,16.8,29.99,South,183,3.0,3.0,94,0.00,,,0.00,Wunderground v.1.15,2013-02-24 10:00:00,
2013-02-24 04:10:00,17.4,15.5,29.98,South,180,3.0,3.0,92,0.00,,,0.00,Wunderground v.1.15,2013-02-24 10:10:00,
2013-02-24 04:20:00,17.0,15.3,29.98,SSE,165,3.0,3.0,93,0.00,,,0.00,Wunderground v.1.15,2013-02-24 10:20:00,
2013-02-24 04:30:00,16.2,14.3,29.99,South,188,1.0,3.0,92,0.00,,,0.00,Wunderground v.1.15,2013-02-24 10:30:00,
2013-02-24 04:40:00,16.7,15.0,29.99,South,177,2.0,3.0,93,0.00,,,0.00,Wunderground v.1.15,2013-02-24 10:40:00,
2013-02-24 04:50:00,16.6,14.9,29.99,South,177,2.0,2.0,93,0.00,,,0.00,Wunderground v.1.15,2013-02-24 10:50:00,
2013-02-24 05:00:00,15.7,13.8,30.00,South,176,0.0,0.0,92,0.00,,,0.00,Wunderground v.1.15,2013-02-24 11:00:00,
2013-02-24 05:10:00,15.3,13.6,30.00,South,177,0.0,1.0,93,0.00,,,0.00,Wunderground v.1.15,2013-02-24 11:10:00,
2013-02-24 05:15:00,16.3,14.9,30.00,South,175,1.0,3.0,94,0.00,,,0.00,Wunderground v.1.15,2013-02-24 11:15:00,
2013-02-24 05:25:00,16.8,15.4,30.00,SSE,165,2.0,2.0,94,0.00,,,0.00,Wunderground v.1.15,2013-02-24 11:25:00,
2013-02-24 05:30:00,17.6,16.2,30.00,South,177,2.0,2.0,94,0.00,,,0.00,Wunderground v.1.15,2013-02-24 11:30:00,
2013-02-24 05:35:00,17.9,16.5,30.00,South,186,2.0,2.0,94,0.00,,,0.00,Wunderground v.1.15,2013-02-24 11:35:00,
2013-02-24 05:45:00,18.7,17.3,30.00,South,173,1.0,2.0,94,0.00,,,0.00,Wunderground v.1.15,2013-02-24 11:45:00,
2013-02-24 05:50:00,19.0,17.6,30.01,SSE,159,1.0,1.0,94,0.00,,,0.00,Wunderground v.1.15,2013-02-24 11:50:00,
2013-02-24 06:00:00,19.4,18.0,30.00,SSE,148,0.0,1.0,94,0.00,,,0.00,Wunderground v.1.15,2013-02-24 12:00:00,
2013-02-24 06:10:00,20.2,18.8,30.00,SSE,158,1.0,3.0,94,0.00,,,0.00,Wunderground v.1.15,2013-02-24 12:10:00,
2013-02-24 06:15:00,20.9,19.4,30.00,SSE,155,2.0,3.0,94,0.00,,,0.00,Wunderground v.1.15,2013-02-24 12:15:00,
2013-02-24 06:25:00,21.8,20.3,30.00,SE,146,2.0,3.0,94,0.00,,,0.00,Wunderground v.1.15,2013-02-24 12:25:00,
2013-02-24 06:35:00,22.0,20.3,30.00,SE,134,2.0,3.0,93,0.00,,,0.00,Wunderground v.1.15,2013-02-24 12:35:00,
2013-02-24 06:45:00,22.1,20.4,30.00,SSE,153,2.0,2.0,93,0.00,,,0.00,Wunderground v.1.15,2013-02-24 12:45:00,
2013-02-24 06:55:00,22.2,20.5,30.00,SE,142,1.0,2.0,93,0.00,,,0.00,Wunderground v.1.15,2013-02-24 12:55:00,
2013-02-24 07:00:00,22.3,20.6,30.01,SSE,158,1.0,1.0,93,0.00,,,0.00,Wunderground v.1.15,2013-02-24 13:00:00,
2013-02-24 07:10:00,22.7,21.0,30.01,SE,131,1.0,1.0,93,0.00,,,0.00,Wunderground v.1.15,2013-02-24 13:10:00,
2013-02-24 07:20:00,23.0,21.3,30.01,SE,125,2.0,2.0,93,0.00,,,0.00,Wunderground v.1.15,2013-02-24 13:20:00,
2013-02-24 07:30:00,23.3,21.3,30.01,SE,131,1.0,2.0,92,0.00,,,0.00,Wunderground v.1.15,2013-02-24 13:30:00,
2013-02-24 07:35:00,23.5,21.5,30.02,SE,145,2.0,2.0,92,0.00,,,0.00,Wunderground v.1.15,2013-02-24 13:35:00,
2013-02-24 07:45:00,23.8,21.8,30.02,SE,141,2.0,2.0,92,0.00,,,0.00,Wunderground v.1.15,2013-02-24 13:45:00,
2013-02-24 07:50:00,23.9,21.9,30.02,SSE,155,2.0,2.0,92,0.00,,,0.00,Wunderground v.1.15,2013-02-24 13:50:00,
2013-02-24 07:55:00,24.0,22.0,30.03,SE,139,2.0,2.0,92,0.00,,,0.00,Wunderground v.1.15,2013-02-24 13:55:00,
2013-02-24 08:00:00,24.3,22.3,30.03,SSE,152,2.0,2.0,92,0.00,,,0.00,Wunderground v.1.15,2013-02-24 14:00:00,
2013-02-24 08:10:00,24.6,22.3,30.03,SE,136,2.0,2.0,91,0.00,,,0.00,Wunderground v.1.15,2013-02-24 14:10:00,
2013-02-24 08:20:00,25.0,22.7,30.03,SSE,152,2.0,3.0,91,0.00,,,0.00,Wunderground v.1.15,2013-02-24 14:20:00,
2013-02-24 08:25:00,25.2,22.9,30.03,SSE,149,2.0,3.0,91,0.00,,,0.00,Wunderground v.1.15,2013-02-24 14:25:00,
2013-02-24 08:35:00,25.6,23.3,30.03,SE,133,2.0,2.0,91,0.00,,,0.00,Wunderground v.1.15,2013-02-24 14:35:00,
2013-02-24 08:45:00,25.9,23.4,30.03,SE,136,2.0,3.0,90,0.00,,,0.00,Wunderground v.1.15,2013-02-24 14:45:00,
2013-02-24 08:55:00,26.6,24.1,30.03,SE,139,2.0,3.0,90,0.00,,,0.00,Wunderground v.1.15,2013-02-24 14:55:00,
2013-02-24 09:00:00,26.7,23.9,30.03,SE,129,3.0,4.0,89,0.00,,,0.00,Wunderground v.1.15,2013-02-24 15:00:00,
2013-02-24 09:10:00,26.9,23.8,30.04,SE,135,3.0,4.0,88,0.00,,,0.00,Wunderground v.1.15,2013-02-24 15:10:00,
2013-02-24 09:15:00,27.0,23.9,30.04,SE,125,4.0,4.0,88,0.00,,,0.00,Wunderground v.1.15,2013-02-24 15:15:00,
2013-02-24 09:25:00,27.4,24.3,30.04,ESE,122,3.0,3.0,88,0.00,,,0.00,Wunderground v.1.15,2013-02-24 15:25:00,
2013-02-24 09:35:00,27.8,24.7,30.05,SE,142,3.0,4.0,88,0.00,,,0.00,Wunderground v.1.15,2013-02-24 15:35:00,
2013-02-24 09:45:00,28.1,24.5,30.06,SE,136,5.0,6.0,86,0.00,,,0.00,Wunderground v.1.15,2013-02-24 15:45:00,
2013-02-24 09:55:00,28.0,24.1,30.06,SSE,156,5.0,5.0,85,0.00,,,0.00,Wunderground v.1.15,2013-02-24 15:55:00,
2013-02-24 10:00:00,28.1,24.2,30.06,SSE,154,4.0,4.0,85,0.00,,,0.00,Wunderground v.1.15,2013-02-24 16:00:00,
2013-02-24 10:10:00,28.5,24.6,30.06,SSE,167,4.0,4.0,85,0.00,,,0.00,Wunderground v.1.15,2013-02-24 16:10:00,
2013-02-24 10:20:00,28.8,24.6,30.06,SSE,150,3.0,3.0,84,0.00,,,0.00,Wunderground v.1.15,2013-02-24 16:20:00,
2013-02-24 10:25:00,29.4,25.4,30.06,SE,145,3.0,3.0,85,0.00,,,0.00,Wunderground v.1.15,2013-02-24 16:25:00,
2013-02-24 10:35:00,30.0,25.8,30.06,SE,136,4.0,5.0,84,0.00,,,0.00,Wunderground v.1.15,2013-02-24 16:35:00,
2013-02-24 10:45:00,31.1,26.5,30.06,SSE,165,3.0,5.0,83,0.00,,,0.00,Wunderground v.1.15,2013-02-24 16:45:00,
2013-02-24 10:55:00,32.1,26.9,30.06,South,169,4.0,5.0,81,0.00,,,0.00,Wunderground v.1.15,2013-02-24 16:55:00,
2013-02-24 11:00:00,32.6,27.1,30.06,South,177,4.0,4.0,80,0.00,,,0.00,Wunderground v.1.15,2013-02-24 17:00:00,
2013-02-24 11:10:00,33.5,27.4,30.06,SSE,161,3.0,3.0,78,0.00,,,0.00,Wunderground v.1.15,2013-02-24 17:10:00,
2013-02-24 11:20:00,34.1,27.6,30.06,SSE,158,2.0,2.0,77,0.00,,,0.00,Wunderground v.1.15,2013-02-24 17:20:00,
2013-02-24 11:30:00,35.0,28.2,30.06,SSE,167,3.0,3.0,76,0.00,,,0.00,Wunderground v.1.15,2013-02-24 17:30:00,
2013-02-24 11:35:00,35.9,28.4,30.06,SSE,166,3.0,3.0,74,0.00,,,0.00,Wunderground v.1.15,2013-02-24 17:35:00,
2013-02-24 11:40:00,35.9,28.4,30.06,SSE,163,3.0,3.0,74,0.00,,,0.00,Wunderground v.1.15,2013-02-24 17:40:00,
2013-02-24 11:50:00,36.1,28.3,30.07,SSE,154,3.0,3.0,73,0.00,,,0.00,Wunderground v.1.15,2013-02-24 17:50:00,
2013-02-24 11:55:00,35.7,28.2,30.07,South,173,4.0,4.0,74,0.00,,,0.00,Wunderground v.1.15,2013-02-24 17:55:00,
2013-02-24 12:00:00,35.6,28.5,30.07,South,176,3.0,3.0,75,0.00,,,0.00,Wunderground v.1.15,2013-02-24 18:00:00,
2013-02-24 12:10:00,36.6,29.1,30.06,SSE,160,2.0,2.0,74,0.00,,,0.00,Wunderground v.1.15,2013-02-24 18:10:00,
2013-02-24 12:20:00,38.5,30.6,30.06,ESE,103,1.0,1.0,73,0.00,,,0.00,Wunderground v.1.15,2013-02-24 18:20:00,
2013-02-24 12:30:00,38.6,29.7,30.06,SE,146,1.0,2.0,70,0.00,,,0.00,Wunderground v.1.15,2013-02-24 18:30:00,
2013-02-24 12:40:00,37.5,28.9,30.05,East,95,2.0,2.0,71,0.00,,,0.00,Wunderground v.1.15,2013-02-24 18:40:00,
2013-02-24 12:50:00,36.9,28.7,30.05,SE,124,2.0,2.0,72,0.00,,,0.00,Wunderground v.1.15,2013-02-24 18:50:00,
2013-02-24 13:00:00,37.2,29.0,30.04,ESE,112,1.0,1.0,72,0.00,,,0.00,Wunderground v.1.15,2013-02-24 19:00:00,
2013-02-24 13:05:00,37.2,28.7,30.04,ESE,104,2.0,2.0,71,0.00,,,0.00,Wunderground v.1.15,2013-02-24 19:05:00,
2013-02-24 13:15:00,37.5,29.3,30.04,East,86,1.0,2.0,72,0.00,,,0.00,Wunderground v.1.15,2013-02-24 19:15:00,
2013-02-24 13:25:00,37.9,29.0,30.03,SE,146,1.0,1.0,70,0.00,,,0.00,Wunderground v.1.15,2013-02-24 19:25:00,
2013-02-24 13:35:00,37.6,28.3,30.03,ENE,63,2.0,6.0,69,0.00,,,0.00,Wunderground v.1.15,2013-02-24 19:35:00,
2013-02-24 13:40:00,36.2,28.0,30.03,ENE,72,4.0,4.0,72,0.00,,,0.00,Wunderground v.1.15,2013-02-24 19:40:00,
2013-02-24 13:50:00,35.0,27.5,30.03,ENE,63,4.0,4.0,74,0.00,,,0.00,Wunderground v.1.15,2013-02-24 19:50:00,
2013-02-24 14:00:00,35.8,28.0,30.02,NE,38,3.0,3.0,73,0.00,,,0.00,Wunderground v.1.15,2013-02-24 20:00:00,
2013-02-24 14:10:00,36.8,28.3,30.02,NNE,30,2.0,3.0,71,0.00,,,0.00,Wunderground v.1.15,2013-02-24 20:10:00,
2013-02-24 14:15:00,36.6,28.4,30.02,North,360,3.0,3.0,72,0.00,,,0.00,Wunderground v.1.15,2013-02-24 20:15:00,
2013-02-24 14:25:00,36.9,28.7,30.02,NW,326,2.0,3.0,72,0.00,,,0.00,Wunderground v.1.15,2013-02-24 20:25:00,
2013-02-24 14:35:00,37.1,28.9,30.02,NNE,20,3.0,4.0,72,0.00,,,0.00,Wunderground v.1.15,2013-02-24 20:35:00,
2013-02-24 14:45:00,37.1,28.9,30.02,North,5,3.0,4.0,72,0.00,,,0.00,Wunderground v.1.15,2013-02-24 20:45:00,
2013-02-24 14:55:00,37.5,28.9,30.01,NNE,16,3.0,3.0,71,0.00,,,0.00,Wunderground v.1.15,2013-02-24 20:55:00,
2013-02-24 15:00:00,37.6,28.7,30.01,NNE,23,4.0,4.0,70,0.00,,,0.00,Wunderground v.1.15,2013-02-24 21:00:00,
2013-02-24 15:10:00,37.4,28.2,30.01,NNE,20,4.0,6.0,69,0.00,,,0.00,Wunderground v.1.15,2013-02-24 21:10:00,
2013-02-24 15:20:00,37.5,28.2,30.00,NNE,32,5.0,5.0,69,0.00,,,0.00,Wunderground v.1.15,2013-02-24 21:20:00,
2013-02-24 15:30:00,37.9,28.3,30.01,NNE,23,4.0,4.0,68,0.00,,,0.00,Wunderground v.1.15,2013-02-24 21:30:00,
2013-02-24 15:40:00,38.2,29.3,30.01,NNW,342,3.0,3.0,70,0.00,,,0.00,Wunderground v.1.15,2013-02-24 21:40:00,
2013-02-24 15:50:00,38.1,29.2,30.01,NNW,335,4.0,5.0,70,0.00,,,0.00,Wunderground v.1.15,2013-02-24 21:50:00,
2013-02-24 15:55:00,38.0,29.4,30.01,NNE,18,4.0,6.0,71,0.00,,,0.00,Wunderground v.1.15,2013-02-24 21:55:00,
2013-02-24 16:00:00,37.9,29.0,30.01,North,10,4.0,5.0,70,0.00,,,0.00,Wunderground v.1.15,2013-02-24 22:00:00,
2013-02-24 16:10:00,38.2,29.3,30.01,NNE,28,4.0,7.0,70,0.00,,,0.00,Wunderground v.1.15,2013-02-24 22:10:00,
2013-02-24 16:20:00,37.5,29.3,30.01,NNW,345,5.0,6.0,72,0.00,,,0.00,Wunderground v.1.15,2013-02-24 22:20:00,
2013-02-24 16:30:00,37.3,29.4,30.02,North,360,4.0,5.0,73,0.00,,,0.00,Wunderground v.1.15,2013-02-24 22:30:00,
2013-02-24 16:40:00,37.3,28.8,30.02,North,357,3.0,3.0,71,0.00,,,0.00,Wunderground v.1.15,2013-02-24 22:40:00,
2013-02-24 16:50:00,36.8,29.0,30.03,North,357,3.0,3.0,73,0.00,,,0.00,Wunderground v.1.15,2013-02-24 22:50:00,
2013-02-24 17:00:00,36.1,29.3,30.02,NNE,25,4.0,4.0,76,0.00,,,0.00,Wunderground v.1.15,2013-02-24 23:00:00,
2013-02-24 17:10:00,35.6,29.1,30.03,North,8,4.0,4.0,77,0.00,,,0.00,Wunderground v.1.15,2013-02-24 23:10:00,
2013-02-24 17:15:00,35.4,29.2,30.03,NNE,13,4.0,4.0,78,0.00,,,0.00,Wunderground v.1.15,2013-02-24 23:15:00,
2013-02-24 17:25:00,35.0,28.8,30.03,North,9,5.0,5.0,78,0.00,,,0.00,Wunderground v.1.15,2013-02-24 23:25:00,
2013-02-24 17:35:00,34.7,28.9,30.03,NE,45,4.0,6.0,79,0.00,,,0.00,Wunderground v.1.15,2013-02-24 23:35:00,
2013-02-24 17:40:00,34.6,28.8,30.03,NNE,23,4.0,4.0,79,0.00,,,0.00,Wunderground v.1.15,2013-02-24 23:40:00,
2013-02-24 17:50:00,34.4,28.9,30.03,NE,39,5.0,5.0,80,0.00,,,0.00,Wunderground v.1.15,2013-02-24 23:50:00,
2013-02-24 18:00:00,34.2,28.7,30.04,NNE,33,5.0,5.0,80,0.00,,,0.00,Wunderground v.1.15,2013-02-25 00:00:00,
2013-02-24 18:10:00,34.1,28.6,30.04,NNE,20,5.0,5.0,80,0.00,,,0.00,Wunderground v.1.15,2013-02-25 00:10:00,
2013-02-24 18:15:00,34.1,28.6,30.04,NE,40,5.0,6.0,80,0.00,,,0.00,Wunderground v.1.15,2013-02-25 00:15:00,
2013-02-24 18:25:00,33.7,28.8,30.05,NNE,21,4.0,5.0,82,0.00,,,0.00,Wunderground v.1.15,2013-02-25 00:25:00,
2013-02-24 18:35:00,33.6,28.7,30.05,NE,42,5.0,6.0,82,0.00,,,0.00,Wunderground v.1.15,2013-02-25 00:35:00,
2013-02-24 18:45:00,33.6,28.4,30.05,NNE,18,5.0,5.0,81,0.00,,,0.00,Wunderground v.1.15,2013-02-25 00:45:00,
2013-02-24 18:55:00,33.6,28.4,30.06,NE,52,6.0,7.0,81,0.00,,,0.00,Wunderground v.1.15,2013-02-25 00:55:00,
2013-02-24 19:00:00,33.6,28.4,30.06,NNW,347,6.0,6.0,81,0.00,,,0.00,Wunderground v.1.15,2013-02-25 01:00:00,
2013-02-24 19:10:00,33.5,28.6,30.06,NNE,33,5.0,6.0,82,0.00,,,0.00,Wunderground v.1.15,2013-02-25 01:10:00,
2013-02-24 19:20:00,33.4,28.5,30.07,NE,51,5.0,5.0,82,0.00,,,0.00,Wunderground v.1.15,2013-02-25 01:20:00,
2013-02-24 19:30:00,33.3,28.7,30.08,NE,46,4.0,6.0,83,0.00,,,0.00,Wunderground v.1.15,2013-02-25 01:30:00,
2013-02-24 19:40:00,33.3,28.7,30.08,North,356,5.0,5.0,83,0.00,,,0.00,Wunderground v.1.15,2013-02-25 01:40:00,
2013-02-24 19:50:00,33.2,28.6,30.09,North,355,6.0,6.0,83,0.00,,,0.00,Wunderground v.1.15,2013-02-25 01:50:00,
2013-02-24 19:55:00,33.2,28.6,30.09,North,352,5.0,6.0,83,0.00,,,0.00,Wunderground v.1.15,2013-02-25 01:55:00,
2013-02-24 20:00:00,33.2,28.9,30.09,NNE,27,4.0,5.0,84,0.00,,,0.00,Wunderground v.1.15,2013-02-25 02:00:00,
2013-02-24 20:05:00,33.2,28.6,30.09,North,10,4.0,5.0,83,0.00,,,0.00,Wunderground v.1.15,2013-02-25 02:05:00,
2013-02-24 20:15:00,33.0,28.7,30.09,NNE,14,5.0,5.0,84,0.00,,,0.00,Wunderground v.1.15,2013-02-25 02:15:00,
2013-02-24 20:20:00,32.9,28.6,30.10,North,359,5.0,7.0,84,0.00,,,0.00,Wunderground v.1.15,2013-02-25 02:20:00,
2013-02-24 20:30:00,32.9,28.6,30.10,North,11,5.0,5.0,84,0.00,,,0.00,Wunderground v.1.15,2013-02-25 02:30:00,
2013-02-24 20:40:00,32.8,28.5,30.10,NNE,24,6.0,7.0,84,0.00,,,0.00,Wunderground v.1.15,2013-02-25 02:40:00,
2013-02-24 20:50:00,32.7,28.4,30.10,NNE,25,5.0,5.0,84,0.00,,,0.00,Wunderground v.1.15,2013-02-25 02:50:00,
2013-02-24 21:00:00,32.6,28.6,30.10,NNE,18,6.0,7.0,85,0.00,,,0.00,Wunderground v.1.15,2013-02-25 03:00:00,
2013-02-24 21:10:00,32.5,28.5,30.11,North,354,6.0,6.0,85,0.00,,,0.00,Wunderground v.1.15,2013-02-25 03:10:00,
2013-02-24 21:15:00,32.5,28.5,30.11,NNE,24,5.0,6.0,85,0.00,,,0.00,Wunderground v.1.15,2013-02-25 03:15:00,
2013-02-24 21:25:00,32.4,28.7,30.11,NNE,27,4.0,6.0,86,0.00,,,0.00,Wunderground v.1.15,2013-02-25 03:25:00,
2013-02-24 21:35:00,32.3,28.6,30.11,North,8,5.0,7.0,86,0.00,,,0.00,Wunderground v.1.15,2013-02-25 03:35:00,
2013-02-24 21:45:00,32.2,28.8,30.11,NNE,27,5.0,5.0,87,0.00,,,0.00,Wunderground v.1.15,2013-02-25 03:45:00,
2013-02-24 21:55:00,31.8,28.7,30.12,North,349,4.0,5.0,88,0.00,,,0.00,Wunderground v.1.15,2013-02-25 03:55:00,
2013-02-24 22:01:00,31.6,28.5,30.12,NNE,24,4.0,4.0,88,0.00,,,0.00,Wunderground v.1.15,2013-02-25 04:01:00,
2013-02-24 22:10:00,31.2,28.1,30.12,NNW,347,4.0,4.0,88,0.00,,,0.00,Wunderground v.1.15,2013-02-25 04:10:00,
2013-02-24 22:20:00,30.6,27.7,30.12,North,352,5.0,5.0,89,0.00,,,0.00,Wunderground v.1.15,2013-02-25 04:20:00,
2013-02-24 22:30:00,30.0,27.2,30.12,North,350,6.0,8.0,89,0.00,,,0.00,Wunderground v.1.15,2013-02-25 04:30:00,
2013-02-24 22:40:00,29.5,26.7,30.12,NNE,27,6.0,6.0,89,0.00,,,0.00,Wunderground v.1.15,2013-02-25 04:40:00,
2013-02-24 22:50:00,29.1,26.3,30.12,North,9,6.0,8.0,89,0.00,,,0.00,Wunderground v.1.15,2013-02-25 04:50:00,
2013-02-24 22:55:00,29.0,26.2,30.12,NNW,337,6.0,8.0,89,0.00,,,0.00,Wunderground v.1.15,2013-02-25 04:55:00,
2013-02-24 23:00:00,28.9,26.1,30.13,NNW,345,5.0,6.0,89,0.00,,,0.00,Wunderground v.1.15,2013-02-25 05:00:00,
2013-02-24 23:10:00,28.7,25.9,30.12,North,10,5.0,6.0,89,0.00,,,0.00,Wunderground v.1.15,2013-02-25 05:10:00,
2013-02-24 23:15:00,28.6,25.8,30.12,North,356,5.0,7.0,89,0.00,,,0.00,Wunderground v.1.15,2013-02-25 05:15:00,
2013-02-24 23:25:00,28.5,25.7,30.11,NNE,13,5.0,5.0,89,0.00,,,0.00,Wunderground v.1.15,2013-02-25 05:25:00,
2013-02-24 23:35:00,28.3,25.5,30.11,NE,45,5.0,7.0,89,0.00,,,0.00,Wunderground v.1.15,2013-02-25 05:35:00,
2013-02-24 23:40:00,28.2,25.4,30.11,NNW,341,6.0,6.0,89,0.00,,,0.00,Wunderground v.1.15,2013-02-25 05:40:00,
2013-02-24 23:45:00,28.0,25.2,30.11,NNE,16,6.0,6.0,89,0.00,,,0.00,Wunderground v.1.15,2013-02-25 05:45:00,
2013-02-24 23:50:00,28.0,25.2,30.11,NNE,28,6.0,6.0,89,0.00,,,0.00,Wunderground v.1.15,2013-02-25 05:50:00,